NOI82 KORD-EDDF
Flight info
| Callsign | NOI82 |
|---|---|
| Flight time | N/A |
| Altitude | 37000 |
| Route | RAYNR DCT BRTMN DCT TAAYZ DCT PECOK DCT ASP DCT KAPUX DCT MIVAX DCT CEFOU N579A TUDEP/M080F390 DCT 52N050W 54N040W 55N030W 55N020W DCT RESNO DCT NETKI/N0470F390 DCT MORAG DCT NUCHU L607 KONAN UL607 SPI T180 NIVNU/N0385F230 T847 IMCOM IMCOM1B |
| Aircraft | A346/H-SDE2E3FGHIJ3J4J5M1RWXY/LB1D1 |
Departure
| Time | N/A |
|---|---|
| Airport | Chicago O'Hare International Airport (KORD) |
Arrival
| Time | 2026-04-17 22:30 |
|---|---|
| Airport | Frankfurt Main Airport (EDDF) |
| Time | Latitude | Longitude | Altitude | Speed | Heading |
|---|---|---|---|---|---|
| 2026-04-17 20:02 | 55.00709 | -19.63691 | 40058 ft | 517 kts | 88° |
| 2026-04-17 20:03 | 55.00821 | -19.57408 | 40060 ft | 516 kts | 88° |
| 2026-04-17 20:03 | 55.01030 | -19.44922 | 40061 ft | 517 kts | 88° |
| 2026-04-17 20:04 | 55.01225 | -19.32374 | 40064 ft | 517 kts | 89° |
| 2026-04-17 20:04 | 55.01406 | -19.19821 | 40056 ft | 517 kts | 89° |
| 2026-04-17 20:05 | 55.01573 | -19.07265 | 40062 ft | 516 kts | 89° |
| 2026-04-17 20:05 | 55.01728 | -18.94821 | 40057 ft | 516 kts | 89° |
| 2026-04-17 20:06 | 55.01872 | -18.82259 | 40055 ft | 516 kts | 89° |
| 2026-04-17 20:06 | 55.02002 | -18.69761 | 40055 ft | 515 kts | 89° |
| 2026-04-17 20:07 | 55.02118 | -18.57198 | 40047 ft | 515 kts | 89° |
| 2026-04-17 20:07 | 55.02221 | -18.44709 | 40049 ft | 515 kts | 89° |
| 2026-04-17 20:08 | 55.02311 | -18.32186 | 40042 ft | 515 kts | 90° |
| 2026-04-17 20:08 | 55.02390 | -18.19776 | 40032 ft | 515 kts | 90° |
| 2026-04-17 20:09 | 55.02455 | -18.07311 | 40030 ft | 514 kts | 90° |
| 2026-04-17 20:09 | 55.02507 | -17.94858 | 40025 ft | 514 kts | 90° |
| 2026-04-17 20:10 | 55.02546 | -17.82349 | 40016 ft | 513 kts | 90° |
| 2026-04-17 20:10 | 55.02573 | -17.69900 | 40021 ft | 514 kts | 90° |
| 2026-04-17 20:11 | 55.02587 | -17.57493 | 40021 ft | 514 kts | 90° |
| 2026-04-17 20:11 | 55.02589 | -17.44932 | 40017 ft | 514 kts | 90° |
| 2026-04-17 20:12 | 55.02577 | -17.32381 | 40018 ft | 513 kts | 91° |
| 2026-04-17 20:12 | 55.02552 | -17.19891 | 40018 ft | 513 kts | 91° |
| 2026-04-17 20:13 | 55.02514 | -17.07342 | 40019 ft | 513 kts | 91° |
| 2026-04-17 20:13 | 55.02464 | -16.94817 | 40018 ft | 513 kts | 91° |
| 2026-04-17 20:14 | 55.02402 | -16.82337 | 40018 ft | 513 kts | 91° |
| 2026-04-17 20:14 | 55.02327 | -16.69860 | 40017 ft | 513 kts | 91° |
| 2026-04-17 20:15 | 55.02240 | -16.57406 | 40013 ft | 512 kts | 91° |
| 2026-04-17 20:15 | 55.02137 | -16.44887 | 40006 ft | 512 kts | 91° |
| 2026-04-17 20:16 | 55.02032 | -16.33462 | 40005 ft | 512 kts | 92° |
| 2026-04-17 20:16 | 55.01906 | -16.20900 | 40007 ft | 512 kts | 92° |
| 2026-04-17 20:17 | 55.01769 | -16.08460 | 40003 ft | 512 kts | 92° |
| 2026-04-17 20:17 | 55.01617 | -15.95991 | 39999 ft | 512 kts | 92° |
| 2026-04-17 20:18 | 55.01453 | -15.83488 | 39996 ft | 512 kts | 92° |
| 2026-04-17 20:18 | 55.01276 | -15.71025 | 39995 ft | 512 kts | 92° |
| 2026-04-17 20:19 | 55.01088 | -15.58713 | 39988 ft | 512 kts | 92° |
| 2026-04-17 20:19 | 55.00886 | -15.46322 | 39984 ft | 512 kts | 92° |
| 2026-04-17 20:20 | 55.00671 | -15.33893 | 39975 ft | 511 kts | 93° |
| 2026-04-17 20:20 | 55.00443 | -15.21507 | 39965 ft | 511 kts | 93° |
| 2026-04-17 20:21 | 55.00207 | -15.09462 | 39963 ft | 510 kts | 93° |
| 2026-04-17 20:21 | 55.00025 | -14.96966 | 39955 ft | 511 kts | 91° |
| 2026-04-17 20:22 | 55.00067 | -14.84461 | 39952 ft | 512 kts | 90° |
| 2026-04-17 20:22 | 55.00106 | -14.71946 | 39944 ft | 513 kts | 90° |
| 2026-04-17 20:23 | 55.00124 | -14.59347 | 39951 ft | 513 kts | 90° |
| 2026-04-17 20:23 | 55.00126 | -14.46963 | 39947 ft | 512 kts | 90° |
| 2026-04-17 20:24 | 55.00113 | -14.34506 | 39946 ft | 512 kts | 91° |
| 2026-04-17 20:24 | 55.00087 | -14.22067 | 39942 ft | 512 kts | 91° |
| 2026-04-17 20:25 | 54.99760 | -14.09606 | 39947 ft | 511 kts | 97° |
| 2026-04-17 20:25 | 54.98661 | -13.97423 | 39939 ft | 511 kts | 103° |
| 2026-04-17 20:26 | 54.96778 | -13.85455 | 39925 ft | 509 kts | 110° |
| 2026-04-17 20:26 | 54.94281 | -13.73838 | 39937 ft | 509 kts | 112° |
| 2026-04-17 20:27 | 54.91734 | -13.62322 | 39938 ft | 509 kts | 112° |
| 2026-04-17 20:27 | 54.89169 | -13.50746 | 39936 ft | 508 kts | 112° |
| 2026-04-17 20:28 | 54.86625 | -13.39305 | 39933 ft | 508 kts | 112° |
| 2026-04-17 20:28 | 54.84146 | -13.28213 | 39937 ft | 508 kts | 113° |
| 2026-04-17 20:29 | 54.81570 | -13.16751 | 39933 ft | 508 kts | 113° |
| 2026-04-17 20:29 | 54.78988 | -13.05321 | 39927 ft | 508 kts | 113° |
| 2026-04-17 20:30 | 54.75102 | -12.88233 | 39921 ft | 508 kts | 113° |
| 2026-04-17 20:30 | 54.72464 | -12.76707 | 39918 ft | 508 kts | 113° |
| 2026-04-17 20:31 | 54.69854 | -12.65367 | 39923 ft | 508 kts | 113° |
| 2026-04-17 20:31 | 54.67205 | -12.53920 | 39922 ft | 507 kts | 113° |
| 2026-04-17 20:32 | 54.64558 | -12.42544 | 39924 ft | 507 kts | 113° |
| 2026-04-17 20:32 | 54.61910 | -12.31230 | 39924 ft | 507 kts | 114° |
| 2026-04-17 20:33 | 54.59259 | -12.19955 | 39922 ft | 507 kts | 114° |
| 2026-04-17 20:33 | 54.56585 | -12.08641 | 39924 ft | 507 kts | 114° |
| 2026-04-17 20:34 | 54.53904 | -11.97355 | 39923 ft | 507 kts | 114° |
| 2026-04-17 20:34 | 54.51220 | -11.86120 | 39916 ft | 506 kts | 114° |
| 2026-04-17 20:35 | 54.48535 | -11.74939 | 39914 ft | 506 kts | 114° |
| 2026-04-17 20:35 | 54.45830 | -11.63728 | 39916 ft | 506 kts | 114° |
| 2026-04-17 20:36 | 54.43114 | -11.52532 | 39921 ft | 507 kts | 114° |
| 2026-04-17 20:36 | 54.40375 | -11.41303 | 39918 ft | 507 kts | 114° |
| 2026-04-17 20:37 | 54.37613 | -11.30033 | 39919 ft | 507 kts | 115° |
| 2026-04-17 20:37 | 54.34885 | -11.18960 | 39923 ft | 507 kts | 115° |
| 2026-04-17 20:38 | 54.32137 | -11.07863 | 39925 ft | 507 kts | 115° |
| 2026-04-17 20:38 | 54.29363 | -10.96713 | 39925 ft | 507 kts | 115° |
| 2026-04-17 20:39 | 54.26590 | -10.85625 | 39928 ft | 506 kts | 115° |
| 2026-04-17 20:39 | 54.23824 | -10.74619 | 39930 ft | 506 kts | 115° |
| 2026-04-17 20:40 | 54.21028 | -10.63549 | 39932 ft | 506 kts | 115° |
| 2026-04-17 20:40 | 54.18224 | -10.52508 | 39931 ft | 506 kts | 116° |
| 2026-04-17 20:41 | 54.15408 | -10.41471 | 39933 ft | 506 kts | 116° |
| 2026-04-17 20:41 | 54.12602 | -10.30523 | 39936 ft | 506 kts | 116° |
| 2026-04-17 20:42 | 54.09762 | -10.19503 | 39935 ft | 506 kts | 116° |
| 2026-04-17 20:42 | 54.06926 | -10.08546 | 39936 ft | 506 kts | 116° |
| 2026-04-17 20:43 | 54.04055 | -9.97511 | 39943 ft | 506 kts | 117° |
| 2026-04-17 20:43 | 54.01194 | -9.86572 | 39959 ft | 506 kts | 117° |
| 2026-04-17 20:44 | 53.98327 | -9.75662 | 39968 ft | 506 kts | 117° |
| 2026-04-17 20:44 | 53.95438 | -9.64716 | 39971 ft | 506 kts | 117° |
| 2026-04-17 20:45 | 53.92552 | -9.53837 | 39968 ft | 506 kts | 117° |
| 2026-04-17 20:45 | 53.89657 | -9.42976 | 39969 ft | 506 kts | 117° |
| 2026-04-17 20:46 | 53.86731 | -9.32051 | 39976 ft | 506 kts | 117° |
| 2026-04-17 20:46 | 53.83801 | -9.21159 | 39979 ft | 505 kts | 118° |
| 2026-04-17 20:47 | 53.80857 | -9.10278 | 39976 ft | 505 kts | 117° |
| 2026-04-17 20:47 | 53.77919 | -8.99463 | 39972 ft | 506 kts | 117° |
| 2026-04-17 20:48 | 53.74966 | -8.88640 | 39975 ft | 506 kts | 117° |
| 2026-04-17 20:48 | 53.71983 | -8.77760 | 39980 ft | 506 kts | 118° |
| 2026-04-17 20:49 | 53.69022 | -8.67014 | 39978 ft | 505 kts | 118° |
| 2026-04-17 20:49 | 53.66053 | -8.56285 | 39992 ft | 505 kts | 118° |
| 2026-04-17 20:50 | 53.63049 | -8.45485 | 39994 ft | 505 kts | 118° |
| 2026-04-17 20:50 | 53.60041 | -8.34720 | 40000 ft | 505 kts | 118° |
| 2026-04-17 20:51 | 53.57042 | -8.24036 | 40003 ft | 505 kts | 119° |
| 2026-04-17 20:51 | 53.54026 | -8.13338 | 40004 ft | 504 kts | 119° |
| 2026-04-17 20:52 | 53.51006 | -8.02679 | 40013 ft | 505 kts | 119° |
| 2026-04-17 20:52 | 53.47970 | -7.92010 | 40021 ft | 505 kts | 119° |
| 2026-04-17 20:53 | 53.44929 | -7.81375 | 40015 ft | 505 kts | 119° |
| 2026-04-17 20:53 | 53.41855 | -7.70664 | 40016 ft | 505 kts | 119° |
| 2026-04-17 20:54 | 53.38769 | -7.59972 | 40013 ft | 505 kts | 119° |
| 2026-04-17 20:54 | 53.35712 | -7.49422 | 40021 ft | 505 kts | 119° |
| 2026-04-17 20:55 | 53.32636 | -7.38853 | 40016 ft | 504 kts | 119° |
| 2026-04-17 20:55 | 53.29533 | -7.28243 | 40023 ft | 504 kts | 120° |
| 2026-04-17 20:56 | 53.26435 | -7.17692 | 40029 ft | 505 kts | 120° |
| 2026-04-17 20:56 | 53.23333 | -7.07178 | 40039 ft | 506 kts | 120° |
| 2026-04-17 20:57 | 53.20211 | -6.96644 | 40042 ft | 505 kts | 120° |
| 2026-04-17 20:57 | 53.17069 | -6.86088 | 40046 ft | 505 kts | 120° |
| 2026-04-17 20:58 | 53.13913 | -6.75530 | 40049 ft | 505 kts | 120° |
| 2026-04-17 20:58 | 53.10753 | -6.65005 | 40037 ft | 505 kts | 120° |
| 2026-04-17 20:59 | 53.07587 | -6.54512 | 40029 ft | 505 kts | 120° |
| 2026-04-17 20:59 | 53.04417 | -6.44053 | 40027 ft | 505 kts | 120° |
| 2026-04-17 21:00 | 53.01259 | -6.33669 | 40028 ft | 505 kts | 121° |
| 2026-04-17 21:00 | 52.98069 | -6.23230 | 40027 ft | 504 kts | 121° |
| 2026-04-17 21:01 | 52.94863 | -6.12784 | 40039 ft | 504 kts | 121° |
| 2026-04-17 21:01 | 52.91685 | -6.02468 | 40050 ft | 505 kts | 121° |
| 2026-04-17 21:02 | 52.88462 | -5.92064 | 40064 ft | 505 kts | 121° |
| 2026-04-17 21:02 | 52.85248 | -5.81730 | 40061 ft | 504 kts | 121° |
| 2026-04-17 21:03 | 52.82050 | -5.71493 | 40080 ft | 505 kts | 121° |
| 2026-04-17 21:03 | 52.78785 | -5.61080 | 40090 ft | 505 kts | 121° |
| 2026-04-17 21:04 | 52.75537 | -5.50780 | 40095 ft | 506 kts | 121° |
| 2026-04-17 21:04 | 52.72315 | -5.40451 | 40100 ft | 506 kts | 121° |
| 2026-04-17 21:05 | 52.69107 | -5.30144 | 40099 ft | 505 kts | 122° |
| 2026-04-17 21:05 | 52.65897 | -5.19886 | 40105 ft | 505 kts | 122° |
| 2026-04-17 21:06 | 52.62638 | -5.09541 | 40094 ft | 505 kts | 122° |
| 2026-04-17 21:06 | 52.59410 | -4.99337 | 40102 ft | 505 kts | 121° |
| 2026-04-17 21:07 | 52.56147 | -4.89056 | 40102 ft | 505 kts | 122° |
| 2026-04-17 21:07 | 52.52888 | -4.78835 | 40111 ft | 505 kts | 122° |
| 2026-04-17 21:08 | 52.49604 | -4.68583 | 40111 ft | 505 kts | 122° |
| 2026-04-17 21:08 | 52.46317 | -4.58359 | 40113 ft | 506 kts | 122° |
| 2026-04-17 21:09 | 52.43014 | -4.48134 | 40115 ft | 506 kts | 122° |
| 2026-04-17 21:09 | 52.39727 | -4.37996 | 40121 ft | 506 kts | 122° |
| 2026-04-17 21:10 | 52.36404 | -4.27796 | 40123 ft | 506 kts | 123° |
| 2026-04-17 21:10 | 52.33077 | -4.17620 | 40123 ft | 506 kts | 123° |
| 2026-04-17 21:11 | 52.29752 | -4.07496 | 40129 ft | 506 kts | 123° |
| 2026-04-17 21:11 | 52.26624 | -3.98011 | 40128 ft | 504 kts | 123° |
| 2026-04-17 21:12 | 52.23278 | -3.87903 | 40117 ft | 504 kts | 122° |
| 2026-04-17 21:12 | 52.19923 | -3.77800 | 40121 ft | 505 kts | 123° |
| 2026-04-17 21:13 | 52.16562 | -3.67723 | 40124 ft | 505 kts | 123° |
| 2026-04-17 21:13 | 52.13199 | -3.57686 | 40121 ft | 504 kts | 123° |
| 2026-04-17 21:14 | 52.09821 | -3.47646 | 40133 ft | 504 kts | 123° |
| 2026-04-17 21:14 | 52.06419 | -3.37580 | 40132 ft | 504 kts | 123° |
| 2026-04-17 21:15 | 52.03035 | -3.27598 | 40150 ft | 502 kts | 124° |
| 2026-04-17 21:15 | 51.99656 | -3.17672 | 40146 ft | 503 kts | 124° |
| 2026-04-17 21:16 | 51.96244 | -3.07695 | 40177 ft | 502 kts | 124° |
| 2026-04-17 21:16 | 51.92817 | -2.97709 | 40153 ft | 502 kts | 124° |
| 2026-04-17 21:17 | 51.89395 | -2.87779 | 40157 ft | 502 kts | 124° |
| 2026-04-17 21:17 | 51.85960 | -2.77850 | 40165 ft | 502 kts | 124° |
| 2026-04-17 21:18 | 51.82538 | -2.67997 | 40152 ft | 501 kts | 124° |
| 2026-04-17 21:18 | 51.79110 | -2.58169 | 40168 ft | 501 kts | 124° |
| 2026-04-17 21:19 | 51.75669 | -2.48334 | 40165 ft | 501 kts | 124° |
| 2026-04-17 21:19 | 51.72227 | -2.38543 | 40180 ft | 501 kts | 124° |
| 2026-04-17 21:20 | 51.68784 | -2.28782 | 40169 ft | 499 kts | 125° |
| 2026-04-17 21:20 | 51.65331 | -2.19032 | 40179 ft | 500 kts | 125° |
| 2026-04-17 21:21 | 51.61866 | -2.09289 | 40184 ft | 499 kts | 125° |
| 2026-04-17 21:21 | 51.58393 | -1.99564 | 40187 ft | 499 kts | 125° |
| 2026-04-17 21:22 | 51.54897 | -1.89816 | 40180 ft | 499 kts | 125° |
| 2026-04-17 21:22 | 51.51433 | -1.80154 | 40188 ft | 500 kts | 124° |
| 2026-04-17 21:23 | 51.48342 | -1.70034 | 40190 ft | 505 kts | 118° |
| 2026-04-17 21:23 | 51.45957 | -1.59528 | 40202 ft | 509 kts | 111° |
| 2026-04-17 21:24 | 51.44233 | -1.48421 | 40169 ft | 513 kts | 106° |
| 2026-04-17 21:24 | 51.42750 | -1.37234 | 40187 ft | 513 kts | 107° |
| 2026-04-17 21:25 | 51.41262 | -1.26472 | 40193 ft | 512 kts | 108° |
| 2026-04-17 21:25 | 51.39839 | -1.15329 | 40181 ft | 515 kts | 104° |
| 2026-04-17 21:26 | 51.39055 | -1.03866 | 40199 ft | 517 kts | 99° |
| 2026-04-17 21:26 | 51.38478 | -0.92328 | 40226 ft | 517 kts | 99° |
| 2026-04-17 21:27 | 51.37887 | -0.80807 | 40249 ft | 517 kts | 99° |
| 2026-04-17 21:27 | 51.37274 | -0.69290 | 40230 ft | 517 kts | 99° |
| 2026-04-17 21:28 | 51.36649 | -0.57825 | 40205 ft | 517 kts | 99° |
| 2026-04-17 21:28 | 51.36005 | -0.46249 | 40195 ft | 517 kts | 99° |
| 2026-04-17 21:29 | 51.35354 | -0.34740 | 40214 ft | 516 kts | 100° |
| 2026-04-17 21:29 | 51.34694 | -0.23277 | 40244 ft | 515 kts | 99° |
| 2026-04-17 21:30 | 51.34021 | -0.11815 | 40219 ft | 515 kts | 99° |
| 2026-04-17 21:30 | 51.33337 | -0.00392 | 40224 ft | 515 kts | 100° |
| 2026-04-17 21:31 | 51.32424 | 0.10984 | 40213 ft | 513 kts | 103° |
| 2026-04-17 21:31 | 51.31351 | 0.22350 | 40240 ft | 513 kts | 103° |
| 2026-04-17 21:32 | 51.30311 | 0.33209 | 40232 ft | 514 kts | 103° |
| 2026-04-17 21:32 | 51.29215 | 0.44592 | 40226 ft | 514 kts | 103° |
| 2026-04-17 21:33 | 51.28109 | 0.55958 | 40223 ft | 515 kts | 103° |
| 2026-04-17 21:33 | 51.26995 | 0.67297 | 40223 ft | 515 kts | 103° |
| 2026-04-17 21:34 | 51.25873 | 0.78599 | 40217 ft | 515 kts | 103° |
| 2026-04-17 21:35 | 51.24177 | 0.95475 | 40223 ft | 515 kts | 103° |
| 2026-04-17 21:35 | 51.23031 | 1.06724 | 40213 ft | 515 kts | 103° |
| 2026-04-17 21:36 | 51.21872 | 1.18010 | 40215 ft | 515 kts | 103° |
| 2026-04-17 21:36 | 51.20702 | 1.29280 | 40212 ft | 515 kts | 103° |
| 2026-04-17 21:37 | 51.19515 | 1.40602 | 40217 ft | 515 kts | 103° |
| 2026-04-17 21:37 | 51.18321 | 1.51874 | 40224 ft | 514 kts | 103° |
| 2026-04-17 21:38 | 51.17108 | 1.63211 | 40221 ft | 514 kts | 103° |
| 2026-04-17 21:38 | 51.15900 | 1.74409 | 40218 ft | 514 kts | 103° |
| 2026-04-17 21:39 | 51.14684 | 1.85557 | 40219 ft | 513 kts | 103° |
| 2026-04-17 21:39 | 51.13453 | 1.96792 | 40219 ft | 514 kts | 102° |
| 2026-04-17 21:40 | 51.12639 | 2.08121 | 40212 ft | 515 kts | 98° |
| 2026-04-17 21:40 | 51.12041 | 2.19539 | 40215 ft | 515 kts | 97° |
| 2026-04-17 21:41 | 51.11429 | 2.30946 | 40212 ft | 515 kts | 97° |
| 2026-04-17 21:41 | 51.10801 | 2.42257 | 40215 ft | 514 kts | 97° |
| 2026-04-17 21:42 | 51.10149 | 2.53700 | 40213 ft | 514 kts | 97° |
| 2026-04-17 21:42 | 51.09235 | 2.65026 | 40213 ft | 511 kts | 104° |
| 2026-04-17 21:43 | 51.07575 | 2.75954 | 40213 ft | 507 kts | 109° |
| 2026-04-17 21:43 | 51.05592 | 2.86781 | 40215 ft | 506 kts | 109° |
| 2026-04-17 21:44 | 51.03618 | 2.97518 | 40214 ft | 506 kts | 109° |
| 2026-04-17 21:44 | 51.01637 | 3.08286 | 40216 ft | 505 kts | 109° |
| 2026-04-17 21:45 | 50.99642 | 3.19095 | 40218 ft | 505 kts | 109° |
| 2026-04-17 21:45 | 50.97665 | 3.29741 | 40215 ft | 505 kts | 109° |
| 2026-04-17 21:46 | 50.95645 | 3.40543 | 40216 ft | 505 kts | 109° |
| 2026-04-17 21:46 | 50.93668 | 3.51057 | 40218 ft | 506 kts | 109° |
| 2026-04-17 21:47 | 50.91630 | 3.61838 | 40212 ft | 505 kts | 109° |
| 2026-04-17 21:47 | 50.89608 | 3.72445 | 40218 ft | 504 kts | 110° |
| 2026-04-17 21:48 | 50.87538 | 3.83164 | 40216 ft | 503 kts | 110° |
| 2026-04-17 21:48 | 50.85468 | 3.93817 | 40212 ft | 503 kts | 109° |
| 2026-04-17 21:49 | 50.83517 | 4.03800 | 40215 ft | 502 kts | 109° |
| 2026-04-17 21:49 | 50.81437 | 4.14390 | 40213 ft | 501 kts | 109° |
| 2026-04-17 21:50 | 50.79341 | 4.25001 | 40213 ft | 501 kts | 109° |
| 2026-04-17 21:50 | 50.77240 | 4.35575 | 40216 ft | 501 kts | 109° |
| 2026-04-17 21:51 | 50.75138 | 4.46099 | 40218 ft | 502 kts | 109° |
| 2026-04-17 21:51 | 50.73032 | 4.56582 | 39960 ft | 491 kts | 109° |
| 2026-04-17 21:51 | 50.72007 | 4.61693 | 39097 ft | 483 kts | 109° |
| 2026-04-17 21:52 | 50.71005 | 4.66850 | 37849 ft | 489 kts | 109° |
| 2026-04-17 21:52 | 50.69983 | 4.72151 | 36470 ft | 499 kts | 109° |
| 2026-04-17 21:52 | 50.68958 | 4.77460 | 35550 ft | 505 kts | 110° |
| 2026-04-17 21:52 | 50.67916 | 4.82819 | 34771 ft | 506 kts | 110° |
| 2026-04-17 21:53 | 50.66877 | 4.88142 | 34000 ft | 506 kts | 110° |
| 2026-04-17 21:53 | 50.65823 | 4.93490 | 33144 ft | 507 kts | 110° |
| 2026-04-17 21:53 | 50.64735 | 4.98848 | 32194 ft | 509 kts | 110° |
| 2026-04-17 21:53 | 50.63624 | 5.04248 | 31174 ft | 512 kts | 110° |
| 2026-04-17 21:54 | 50.62516 | 5.09609 | 30150 ft | 515 kts | 110° |
| 2026-04-17 21:54 | 50.61385 | 5.15067 | 29096 ft | 518 kts | 110° |
| 2026-04-17 21:54 | 50.60267 | 5.20454 | 28347 ft | 513 kts | 110° |
| 2026-04-17 21:54 | 50.59148 | 5.25850 | 27767 ft | 506 kts | 110° |
| 2026-04-17 21:55 | 50.58050 | 5.31129 | 27152 ft | 501 kts | 110° |
| 2026-04-17 21:55 | 50.56945 | 5.36422 | 26530 ft | 497 kts | 110° |
| 2026-04-17 21:55 | 50.55874 | 5.41539 | 25941 ft | 493 kts | 110° |
| 2026-04-17 21:55 | 50.54806 | 5.46627 | 25365 ft | 489 kts | 109° |
| 2026-04-17 21:56 | 50.53735 | 5.51713 | 24771 ft | 485 kts | 109° |
| 2026-04-17 21:56 | 50.52678 | 5.56722 | 24360 ft | 477 kts | 109° |
| 2026-04-17 21:56 | 50.51652 | 5.61591 | 23952 ft | 470 kts | 109° |
| 2026-04-17 21:56 | 50.50704 | 5.66539 | 23257 ft | 470 kts | 108° |
| 2026-04-17 21:57 | 50.49782 | 5.71489 | 22450 ft | 472 kts | 108° |
| 2026-04-17 21:57 | 50.48849 | 5.76501 | 21879 ft | 467 kts | 108° |
| 2026-04-17 21:57 | 50.47946 | 5.81341 | 21402 ft | 461 kts | 108° |
| 2026-04-17 21:57 | 50.47030 | 5.86232 | 21216 ft | 460 kts | 108° |
| 2026-04-17 21:58 | 50.46125 | 5.91043 | 21206 ft | 456 kts | 108° |
| 2026-04-17 21:58 | 50.45231 | 5.95790 | 21210 ft | 447 kts | 108° |
| 2026-04-17 21:58 | 50.44339 | 6.00496 | 21210 ft | 446 kts | 108° |
| 2026-04-17 21:58 | 50.43432 | 6.05271 | 21210 ft | 445 kts | 108° |
| 2026-04-17 21:59 | 50.42553 | 6.09886 | 21209 ft | 446 kts | 108° |
| 2026-04-17 21:59 | 50.41656 | 6.14580 | 21211 ft | 445 kts | 108° |
| 2026-04-17 21:59 | 50.40760 | 6.19264 | 21210 ft | 445 kts | 108° |
| 2026-04-17 21:59 | 50.39851 | 6.24002 | 21210 ft | 445 kts | 108° |
| 2026-04-17 22:00 | 50.38950 | 6.28683 | 21209 ft | 445 kts | 108° |
| 2026-04-17 22:00 | 50.38043 | 6.33384 | 21208 ft | 445 kts | 108° |
| 2026-04-17 22:00 | 50.37186 | 6.38076 | 21205 ft | 446 kts | 105° |
| 2026-04-17 22:00 | 50.36507 | 6.42906 | 21204 ft | 447 kts | 101° |
| 2026-04-17 22:01 | 50.36033 | 6.47754 | 21204 ft | 447 kts | 97° |
| 2026-04-17 22:01 | 50.35716 | 6.52609 | 21204 ft | 447 kts | 96° |
| 2026-04-17 22:01 | 50.35419 | 6.57531 | 21204 ft | 447 kts | 95° |
| 2026-04-17 22:01 | 50.35122 | 6.62407 | 21201 ft | 447 kts | 95° |
| 2026-04-17 22:02 | 50.34817 | 6.67289 | 21198 ft | 446 kts | 96° |
| 2026-04-17 22:02 | 50.34510 | 6.72113 | 21198 ft | 446 kts | 96° |
| 2026-04-17 22:02 | 50.34196 | 6.77042 | 21064 ft | 447 kts | 96° |
| 2026-04-17 22:02 | 50.33846 | 6.81918 | 20341 ft | 450 kts | 99° |
| 2026-04-17 22:03 | 50.33164 | 6.86734 | 19524 ft | 452 kts | 107° |
| 2026-04-17 22:03 | 50.32123 | 6.91374 | 18487 ft | 443 kts | 114° |
| 2026-04-17 22:03 | 50.30860 | 6.95702 | 17749 ft | 426 kts | 116° |
| 2026-04-17 22:03 | 50.29590 | 6.99872 | 17330 ft | 422 kts | 116° |
| 2026-04-17 22:04 | 50.28443 | 7.03656 | 17191 ft | 421 kts | 116° |
| 2026-04-17 22:04 | 50.27173 | 7.07878 | 17056 ft | 421 kts | 116° |
| 2026-04-17 22:04 | 50.25938 | 7.11990 | 16833 ft | 420 kts | 116° |
| 2026-04-17 22:04 | 50.24804 | 7.15773 | 16535 ft | 417 kts | 116° |
| 2026-04-17 22:05 | 50.23566 | 7.19891 | 16213 ft | 414 kts | 116° |
| 2026-04-17 22:05 | 50.22333 | 7.23988 | 15893 ft | 412 kts | 116° |
| 2026-04-17 22:05 | 50.21116 | 7.28030 | 15585 ft | 410 kts | 116° |
| 2026-04-17 22:05 | 50.19909 | 7.32105 | 15271 ft | 409 kts | 114° |
| 2026-04-17 22:06 | 50.18856 | 7.36209 | 14948 ft | 407 kts | 111° |
| 2026-04-17 22:06 | 50.17867 | 7.40353 | 14629 ft | 405 kts | 111° |
| 2026-04-17 22:06 | 50.16887 | 7.44479 | 14309 ft | 403 kts | 111° |
| 2026-04-17 22:06 | 50.15897 | 7.48642 | 13980 ft | 401 kts | 111° |
| 2026-04-17 22:07 | 50.14916 | 7.52746 | 13655 ft | 398 kts | 111° |
| 2026-04-17 22:07 | 50.13946 | 7.56785 | 13340 ft | 396 kts | 111° |
| 2026-04-17 22:07 | 50.12966 | 7.60860 | 13195 ft | 394 kts | 111° |
| 2026-04-17 22:07 | 50.11970 | 7.64927 | 13190 ft | 394 kts | 113° |
| 2026-04-17 22:08 | 50.10826 | 7.68696 | 13189 ft | 393 kts | 120° |
| 2026-04-17 22:08 | 50.09436 | 7.72320 | 13184 ft | 376 kts | 125° |
| 2026-04-17 22:08 | 50.07987 | 7.75618 | 13180 ft | 359 kts | 127° |
| 2026-04-17 22:08 | 50.06605 | 7.78695 | 13179 ft | 344 kts | 127° |
| 2026-04-17 22:09 | 50.05213 | 7.81793 | 13182 ft | 329 kts | 127° |
| 2026-04-17 22:09 | 50.03856 | 7.84814 | 13198 ft | 356 kts | 127° |
| 2026-04-17 22:09 | 50.02351 | 7.88167 | 13196 ft | 384 kts | 126° |
| 2026-04-17 22:09 | 50.00805 | 7.91630 | 13191 ft | 391 kts | 126° |
| 2026-04-17 22:10 | 49.99284 | 7.95191 | 13190 ft | 393 kts | 123° |
| 2026-04-17 22:10 | 49.97916 | 7.98851 | 12994 ft | 387 kts | 120° |
| 2026-04-17 22:10 | 49.96580 | 8.02571 | 12429 ft | 387 kts | 120° |
| 2026-04-17 22:10 | 49.95274 | 8.06218 | 11910 ft | 384 kts | 120° |
| 2026-04-17 22:11 | 49.93959 | 8.09880 | 11434 ft | 380 kts | 120° |
| 2026-04-17 22:11 | 49.92681 | 8.13429 | 10965 ft | 377 kts | 120° |
| 2026-04-17 22:11 | 49.91405 | 8.16959 | 10530 ft | 372 kts | 120° |
| 2026-04-17 22:11 | 49.90132 | 8.20477 | 10333 ft | 360 kts | 120° |
| 2026-04-17 22:12 | 49.88954 | 8.23787 | 10138 ft | 349 kts | 116° |
| 2026-04-17 22:12 | 49.88283 | 8.27411 | 9926 ft | 340 kts | 95° |
| 2026-04-17 22:12 | 49.88429 | 8.30984 | 9743 ft | 330 kts | 76° |
| 2026-04-17 22:12 | 49.89162 | 8.34352 | 9575 ft | 320 kts | 69° |
| 2026-04-17 22:13 | 49.89966 | 8.37529 | 9404 ft | 311 kts | 68° |
| 2026-04-17 22:13 | 49.90749 | 8.40619 | 9239 ft | 302 kts | 68° |
| 2026-04-17 22:13 | 49.91504 | 8.43665 | 9072 ft | 294 kts | 69° |
| 2026-04-17 22:13 | 49.92220 | 8.46604 | 8851 ft | 288 kts | 69° |
| 2026-04-17 22:14 | 49.92921 | 8.49504 | 8528 ft | 286 kts | 69° |
| 2026-04-17 22:14 | 49.93628 | 8.52443 | 8225 ft | 284 kts | 69° |
| 2026-04-17 22:14 | 49.94313 | 8.55297 | 8184 ft | 285 kts | 69° |
| 2026-04-17 22:14 | 49.95010 | 8.58201 | 8181 ft | 285 kts | 69° |
| 2026-04-17 22:15 | 49.95705 | 8.61104 | 7918 ft | 288 kts | 69° |
| 2026-04-17 22:15 | 49.96415 | 8.64073 | 7418 ft | 293 kts | 69° |
| 2026-04-17 22:15 | 49.97124 | 8.67046 | 6923 ft | 297 kts | 70° |
| 2026-04-17 22:15 | 49.97853 | 8.70102 | 6420 ft | 301 kts | 70° |
| 2026-04-17 22:16 | 49.98586 | 8.73186 | 5918 ft | 305 kts | 70° |
| 2026-04-17 22:16 | 49.99320 | 8.76283 | 5418 ft | 308 kts | 70° |
| 2026-04-17 22:16 | 50.00068 | 8.79445 | 4915 ft | 310 kts | 70° |
| 2026-04-17 22:16 | 50.00816 | 8.82602 | 4418 ft | 313 kts | 70° |
| 2026-04-17 22:17 | 50.01565 | 8.85773 | 4052 ft | 310 kts | 70° |
| 2026-04-17 22:17 | 50.02298 | 8.88877 | 3993 ft | 296 kts | 70° |
| 2026-04-17 22:17 | 50.02992 | 8.91818 | 3993 ft | 282 kts | 70° |
| 2026-04-17 22:17 | 50.03657 | 8.94632 | 3987 ft | 268 kts | 70° |
| 2026-04-17 22:18 | 50.04291 | 8.97312 | 3993 ft | 265 kts | 70° |
| 2026-04-17 22:18 | 50.04923 | 8.99998 | 3996 ft | 264 kts | 70° |
| 2026-04-17 22:18 | 50.05567 | 9.02744 | 3993 ft | 265 kts | 70° |
| 2026-04-17 22:18 | 50.06197 | 9.05434 | 3996 ft | 265 kts | 70° |
| 2026-04-17 22:19 | 50.06833 | 9.08149 | 3996 ft | 266 kts | 70° |
| 2026-04-17 22:19 | 50.07468 | 9.10874 | 3997 ft | 266 kts | 70° |
| 2026-04-17 22:19 | 50.08101 | 9.13591 | 3996 ft | 266 kts | 70° |
| 2026-04-17 22:19 | 50.08722 | 9.16257 | 3999 ft | 266 kts | 70° |
| 2026-04-17 22:20 | 50.09370 | 9.19044 | 4001 ft | 266 kts | 70° |
| 2026-04-17 22:20 | 50.09996 | 9.21743 | 4001 ft | 266 kts | 70° |
| 2026-04-17 22:20 | 50.10631 | 9.24480 | 4003 ft | 265 kts | 70° |
| 2026-04-17 22:20 | 50.11539 | 9.27013 | 3976 ft | 265 kts | 43° |
| 2026-04-17 22:21 | 50.13184 | 9.28307 | 3992 ft | 264 kts | 7° |
| 2026-04-17 22:21 | 50.14996 | 9.28057 | 4003 ft | 264 kts | 340° |
| 2026-04-17 22:21 | 50.16577 | 9.26590 | 4005 ft | 264 kts | 319° |
| 2026-04-17 22:21 | 50.17963 | 9.24688 | 4000 ft | 265 kts | 318° |
| 2026-04-17 22:22 | 50.19258 | 9.22705 | 3981 ft | 265 kts | 303° |
| 2026-04-17 22:22 | 50.19924 | 9.19993 | 3981 ft | 264 kts | 275° |
| 2026-04-17 22:22 | 50.19699 | 9.17144 | 3984 ft | 263 kts | 250° |
| 2026-04-17 22:22 | 50.19038 | 9.14469 | 3989 ft | 262 kts | 248° |
| 2026-04-17 22:23 | 50.18380 | 9.11779 | 3987 ft | 262 kts | 249° |
| 2026-04-17 22:23 | 50.17744 | 9.09124 | 3980 ft | 262 kts | 249° |
| 2026-04-17 22:23 | 50.17102 | 9.06406 | 3981 ft | 262 kts | 250° |
| 2026-04-17 22:23 | 50.16467 | 9.03707 | 3978 ft | 260 kts | 250° |
| 2026-04-17 22:24 | 50.15865 | 9.01140 | 3926 ft | 241 kts | 250° |
| 2026-04-17 22:24 | 50.15300 | 8.98728 | 3952 ft | 232 kts | 250° |
| 2026-04-17 22:24 | 50.14608 | 8.96412 | 3953 ft | 232 kts | 231° |
| 2026-04-17 22:24 | 50.13391 | 8.94757 | 3984 ft | 233 kts | 213° |
| 2026-04-17 22:25 | 50.12185 | 8.93058 | 3970 ft | 232 kts | 239° |
| 2026-04-17 22:25 | 50.11523 | 8.90740 | 4000 ft | 232 kts | 251° |
| 2026-04-17 22:25 | 50.10997 | 8.88399 | 4013 ft | 220 kts | 251° |
| 2026-04-17 22:25 | 50.10513 | 8.86235 | 4002 ft | 201 kts | 251° |
| 2026-04-17 22:26 | 50.10055 | 8.84230 | 3968 ft | 189 kts | 250° |
| 2026-04-17 22:26 | 50.09609 | 8.82307 | 3971 ft | 188 kts | 250° |
| 2026-04-17 22:26 | 50.09154 | 8.80364 | 3974 ft | 188 kts | 250° |
| 2026-04-17 22:26 | 50.08700 | 8.78436 | 3977 ft | 188 kts | 250° |
| 2026-04-17 22:27 | 50.08247 | 8.76531 | 3839 ft | 189 kts | 250° |
| 2026-04-17 22:27 | 50.07777 | 8.74589 | 3421 ft | 190 kts | 250° |
| 2026-04-17 22:27 | 50.07301 | 8.72649 | 2919 ft | 195 kts | 250° |
| 2026-04-17 22:27 | 50.06821 | 8.70722 | 2613 ft | 188 kts | 250° |
| 2026-04-17 22:28 | 50.06435 | 8.68758 | 2157 ft | 191 kts | 255° |
| 2026-04-17 22:28 | 50.05976 | 8.66795 | 1664 ft | 194 kts | 248° |
| 2026-04-17 22:28 | 50.05467 | 8.64840 | 1178 ft | 195 kts | 252° |
| 2026-04-17 22:28 | 50.05027 | 8.62888 | 852 ft | 187 kts | 250° |
| 2026-04-17 22:29 | 50.04570 | 8.61028 | 618 ft | 175 kts | 250° |
| 2026-04-17 22:29 | 50.04171 | 8.59319 | 429 ft | 162 kts | 251° |
| 2026-04-17 22:29 | 50.03788 | 8.57764 | 361 ft | 132 kts | 246° |
| 2026-04-17 22:29 | 50.03549 | 8.56743 | 361 ft | 68 kts | 251° |
| 2026-04-17 22:30 | 50.03426 | 8.56183 | 361 ft | 45 kts | 270° |
| 2026-04-17 22:30 | 50.03458 | 8.55895 | 361 ft | 8 kts | 279° |
| 2026-04-17 22:30 | 50.03459 | 8.55889 | 361 ft | 0 kts | 279° |
| 2026-04-17 22:30 | 50.03460 | 8.55884 | 361 ft | 2 kts | 279° |
| 2026-04-17 22:31 | 50.03471 | 8.55782 | 361 ft | 13 kts | 284° |
| 2026-04-17 22:31 | 50.03530 | 8.55721 | 361 ft | 9 kts | 13° |
| 2026-04-17 22:31 | 50.03574 | 8.55806 | 361 ft | 12 kts | 66° |
| 2026-04-17 22:31 | 50.03605 | 8.55931 | 361 ft | 13 kts | 70° |
| 2026-04-17 22:32 | 50.03640 | 8.56081 | 361 ft | 15 kts | 70° |
| 2026-04-17 22:32 | 50.03682 | 8.56253 | 361 ft | 18 kts | 69° |
| 2026-04-17 22:32 | 50.03730 | 8.56446 | 361 ft | 19 kts | 69° |
| 2026-04-17 22:32 | 50.03764 | 8.56584 | 361 ft | 13 kts | 62° |
| 2026-04-17 22:33 | 50.03847 | 8.56667 | 361 ft | 15 kts | 13° |
| 2026-04-17 22:33 | 50.03962 | 8.56706 | 361 ft | 17 kts | 12° |
| 2026-04-17 22:33 | 50.04092 | 8.56743 | 361 ft | 19 kts | 11° |
| 2026-04-17 22:33 | 50.04227 | 8.56789 | 361 ft | 18 kts | 22° |
| 2026-04-17 22:34 | 50.04279 | 8.56919 | 361 ft | 13 kts | 70° |
| 2026-04-17 22:34 | 50.04317 | 8.57068 | 361 ft | 16 kts | 69° |
| 2026-04-17 22:34 | 50.04359 | 8.57229 | 361 ft | 16 kts | 69° |
| 2026-04-17 22:34 | 50.04401 | 8.57400 | 361 ft | 16 kts | 70° |
| 2026-04-17 22:35 | 50.04443 | 8.57583 | 361 ft | 18 kts | 71° |
| 2026-04-17 22:35 | 50.04491 | 8.57785 | 361 ft | 20 kts | 69° |
| 2026-04-17 22:35 | 50.04538 | 8.57982 | 361 ft | 19 kts | 71° |
| 2026-04-17 22:35 | 50.04586 | 8.58188 | 361 ft | 20 kts | 69° |
| 2026-04-17 22:36 | 50.04630 | 8.58365 | 361 ft | 16 kts | 71° |
| 2026-04-17 22:36 | 50.04658 | 8.58485 | 361 ft | 12 kts | 71° |
| 2026-04-17 22:36 | 50.04691 | 8.58626 | 361 ft | 15 kts | 69° |
| 2026-04-17 22:36 | 50.04740 | 8.58729 | 361 ft | 10 kts | 15° |
| 2026-04-17 22:37 | 50.04818 | 8.58722 | 361 ft | 13 kts | 347° |
| 2026-04-17 22:37 | 50.04909 | 8.58663 | 361 ft | 14 kts | 318° |
| 2026-04-17 22:37 | 50.04921 | 8.58537 | 361 ft | 11 kts | 257° |
| 2026-04-17 22:37 | 50.04900 | 8.58460 | 361 ft | 4 kts | 235° |
| 2026-04-17 22:38 | 50.04879 | 8.58444 | 361 ft | 5 kts | 192° |
| 2026-04-17 22:38 | 50.04832 | 8.58453 | 361 ft | 8 kts | 163° |
| 2026-04-17 22:38 | 50.04819 | 8.58460 | 361 ft | 0 kts | 161° |